sensor_id;sensor_type;location;lat;lon;timestamp;temperature;humidity
18073;DHT22;9161;47.348;9.648;2023-05-29T00:00:29;13.40;99.90
18073;DHT22;9161;47.348;9.648;2023-05-29T00:05:31;13.10;99.90
18073;DHT22;9161;47.348;9.648;2023-05-29T00:10:34;13.00;99.90
18073;DHT22;9161;47.348;9.648;2023-05-29T00:15:39;12.90;99.90
18073;DHT22;9161;47.348;9.648;2023-05-29T00:20:41;12.70;99.90
18073;DHT22;9161;47.348;9.648;2023-05-29T00:25:44;12.70;99.90
18073;DHT22;9161;47.348;9.648;2023-05-29T00:30:47;12.50;99.90
18073;DHT22;9161;47.348;9.648;2023-05-29T00:35:49;12.40;99.90
18073;DHT22;9161;47.348;9.648;2023-05-29T00:40:52;12.50;99.90
18073;DHT22;9161;47.348;9.648;2023-05-29T00:45:56;12.40;99.90
18073;DHT22;9161;47.348;9.648;2023-05-29T00:50:58;12.30;99.90
18073;DHT22;9161;47.348;9.648;2023-05-29T00:56:00;12.10;99.90
18073;DHT22;9161;47.348;9.648;2023-05-29T01:01:04;12.20;99.90
18073;DHT22;9161;47.348;9.648;2023-05-29T01:06:07;12.10;99.90
18073;DHT22;9161;47.348;9.648;2023-05-29T01:11:21;11.90;99.90
18073;DHT22;9161;47.348;9.648;2023-05-29T01:16:35;12.00;99.90
18073;DHT22;9161;47.348;9.648;2023-05-29T01:21:53;12.10;99.90
18073;DHT22;9161;47.348;9.648;2023-05-29T01:27:01;12.00;99.90
18073;DHT22;9161;47.348;9.648;2023-05-29T01:32:05;11.70;99.90
18073;DHT22;9161;47.348;9.648;2023-05-29T01:37:07;11.60;99.90
18073;DHT22;9161;47.348;9.648;2023-05-29T01:42:11;11.60;99.90
18073;DHT22;9161;47.348;9.648;2023-05-29T01:47:14;11.60;99.90
18073;DHT22;9161;47.348;9.648;2023-05-29T01:52:16;11.60;99.90
18073;DHT22;9161;47.348;9.648;2023-05-29T01:57:20;11.50;99.90
18073;DHT22;9161;47.348;9.648;2023-05-29T02:02:22;11.20;99.90
18073;DHT22;9161;47.348;9.648;2023-05-29T02:07:25;11.20;99.90
18073;DHT22;9161;47.348;9.648;2023-05-29T02:12:28;11.20;99.90
18073;DHT22;9161;47.348;9.648;2023-05-29T02:17:31;11.10;99.90
18073;DHT22;9161;47.348;9.648;2023-05-29T02:22:34;11.10;99.90
18073;DHT22;9161;47.348;9.648;2023-05-29T02:27:37;11.20;99.90
18073;DHT22;9161;47.348;9.648;2023-05-29T02:32:39;11.10;99.90
18073;DHT22;9161;47.348;9.648;2023-05-29T02:37:42;11.10;99.90
18073;DHT22;9161;47.348;9.648;2023-05-29T02:42:47;11.10;99.90
18073;DHT22;9161;47.348;9.648;2023-05-29T02:47:49;11.20;99.90
18073;DHT22;9161;47.348;9.648;2023-05-29T02:52:51;11.10;99.90
18073;DHT22;9161;47.348;9.648;2023-05-29T02:57:55;11.00;99.90
18073;DHT22;9161;47.348;9.648;2023-05-29T03:02:57;11.00;99.90
18073;DHT22;9161;47.348;9.648;2023-05-29T03:08:00;11.00;99.90
18073;DHT22;9161;47.348;9.648;2023-05-29T03:13:03;10.80;99.90
18073;DHT22;9161;47.348;9.648;2023-05-29T03:18:05;10.90;99.90
18073;DHT22;9161;47.348;9.648;2023-05-29T03:23:08;10.90;99.90
18073;DHT22;9161;47.348;9.648;2023-05-29T03:28:11;10.70;99.90
18073;DHT22;9161;47.348;9.648;2023-05-29T03:33:13;10.50;99.90
18073;DHT22;9161;47.348;9.648;2023-05-29T03:38:15;10.20;99.90
18073;DHT22;9161;47.348;9.648;2023-05-29T03:43:19;10.20;99.90
18073;DHT22;9161;47.348;9.648;2023-05-29T03:48:21;10.00;99.90
18073;DHT22;9161;47.348;9.648;2023-05-29T03:53:23;10.00;99.90
18073;DHT22;9161;47.348;9.648;2023-05-29T03:58:28;10.30;99.90
18073;DHT22;9161;47.348;9.648;2023-05-29T04:03:30;10.30;99.90
18073;DHT22;9161;47.348;9.648;2023-05-29T04:08:33;10.50;99.90
18073;DHT22;9161;47.348;9.648;2023-05-29T04:13:36;10.50;99.90
18073;DHT22;9161;47.348;9.648;2023-05-29T04:18:38;10.60;99.90
18073;DHT22;9161;47.348;9.648;2023-05-29T04:23:40;10.80;99.90
18073;DHT22;9161;47.348;9.648;2023-05-29T04:28:44;11.00;99.90
18073;DHT22;9161;47.348;9.648;2023-05-29T04:33:46;11.10;99.90
18073;DHT22;9161;47.348;9.648;2023-05-29T04:38:49;11.30;99.90
18073;DHT22;9161;47.348;9.648;2023-05-29T04:43:53;11.40;99.90
18073;DHT22;9161;47.348;9.648;2023-05-29T04:48:56;11.60;99.90
18073;DHT22;9161;47.348;9.648;2023-05-29T04:53:58;11.90;99.90
18073;DHT22;9161;47.348;9.648;2023-05-29T04:59:01;12.20;99.90
18073;DHT22;9161;47.348;9.648;2023-05-29T05:04:03;12.50;99.90
18073;DHT22;9161;47.348;9.648;2023-05-29T05:09:06;12.60;99.90
18073;DHT22;9161;47.348;9.648;2023-05-29T05:14:10;13.10;99.90
18073;DHT22;9161;47.348;9.648;2023-05-29T05:19:12;13.40;99.90
18073;DHT22;9161;47.348;9.648;2023-05-29T05:24:14;13.80;99.90
18073;DHT22;9161;47.348;9.648;2023-05-29T05:29:17;14.20;99.90
18073;DHT22;9161;47.348;9.648;2023-05-29T05:34:20;14.40;99.90
18073;DHT22;9161;47.348;9.648;2023-05-29T05:39:22;14.80;99.90
18073;DHT22;9161;47.348;9.648;2023-05-29T05:44:26;15.30;99.90
18073;DHT22;9161;47.348;9.648;2023-05-29T05:49:28;15.70;99.90
18073;DHT22;9161;47.348;9.648;2023-05-29T05:54:30;15.90;99.90
18073;DHT22;9161;47.348;9.648;2023-05-29T05:59:33;16.10;99.90
18073;DHT22;9161;47.348;9.648;2023-05-29T06:04:36;16.30;99.90
18073;DHT22;9161;47.348;9.648;2023-05-29T06:09:39;16.50;99.90
18073;DHT22;9161;47.348;9.648;2023-05-29T06:14:42;16.90;99.90
18073;DHT22;9161;47.348;9.648;2023-05-29T06:19:44;17.20;99.90
18073;DHT22;9161;47.348;9.648;2023-05-29T06:24:46;17.50;99.90
18073;DHT22;9161;47.348;9.648;2023-05-29T06:29:50;17.50;99.90
18073;DHT22;9161;47.348;9.648;2023-05-29T06:34:52;18.00;99.90
18073;DHT22;9161;47.348;9.648;2023-05-29T06:39:54;18.40;99.90
18073;DHT22;9161;47.348;9.648;2023-05-29T06:44:58;18.70;99.90
18073;DHT22;9161;47.348;9.648;2023-05-29T06:50:00;18.70;99.90
18073;DHT22;9161;47.348;9.648;2023-05-29T06:55:03;18.60;99.90
18073;DHT22;9161;47.348;9.648;2023-05-29T07:00:08;19.30;99.90
18073;DHT22;9161;47.348;9.648;2023-05-29T07:05:11;19.50;99.90
18073;DHT22;9161;47.348;9.648;2023-05-29T07:10:14;19.80;99.90
18073;DHT22;9161;47.348;9.648;2023-05-29T07:15:18;20.30;99.90
18073;DHT22;9161;47.348;9.648;2023-05-29T07:20:20;20.80;99.90
18073;DHT22;9161;47.348;9.648;2023-05-29T07:25:24;20.90;99.90
18073;DHT22;9161;47.348;9.648;2023-05-29T07:30:28;21.20;99.90
18073;DHT22;9161;47.348;9.648;2023-05-29T07:35:31;21.40;99.90
18073;DHT22;9161;47.348;9.648;2023-05-29T07:40:34;21.80;99.90
18073;DHT22;9161;47.348;9.648;2023-05-29T07:45:37;21.90;99.90
18073;DHT22;9161;47.348;9.648;2023-05-29T07:50:40;22.70;99.90
18073;DHT22;9161;47.348;9.648;2023-05-29T07:55:42;22.50;99.90
18073;DHT22;9161;47.348;9.648;2023-05-29T08:00:46;22.30;99.90
18073;DHT22;9161;47.348;9.648;2023-05-29T08:05:49;23.20;99.90
18073;DHT22;9161;47.348;9.648;2023-05-29T08:10:51;23.60;99.90
18073;DHT22;9161;47.348;9.648;2023-05-29T08:15:55;22.50;99.90
18073;DHT22;9161;47.348;9.648;2023-05-29T08:20:57;22.60;99.90
18073;DHT22;9161;47.348;9.648;2023-05-29T08:26:00;23.30;99.90
18073;DHT22;9161;47.348;9.648;2023-05-29T08:31:05;23.70;99.90
18073;DHT22;9161;47.348;9.648;2023-05-29T08:36:07;24.50;99.90
18073;DHT22;9161;47.348;9.648;2023-05-29T08:41:12;24.60;99.90
18073;DHT22;9161;47.348;9.648;2023-05-29T08:46:18;24.20;99.90
18073;DHT22;9161;47.348;9.648;2023-05-29T08:51:21;24.80;99.90
18073;DHT22;9161;47.348;9.648;2023-05-29T08:56:30;25.40;99.90
18073;DHT22;9161;47.348;9.648;2023-05-29T09:01:38;24.70;99.90
18073;DHT22;9161;47.348;9.648;2023-05-29T09:06:41;25.50;99.90
18073;DHT22;9161;47.348;9.648;2023-05-29T09:11:44;25.70;99.90
18073;DHT22;9161;47.348;9.648;2023-05-29T09:16:47;25.80;99.90
18073;DHT22;9161;47.348;9.648;2023-05-29T09:21:50;25.70;99.90
18073;DHT22;9161;47.348;9.648;2023-05-29T09:26:52;25.70;99.90
18073;DHT22;9161;47.348;9.648;2023-05-29T09:31:56;26.10;99.90
18073;DHT22;9161;47.348;9.648;2023-05-29T09:37:01;26.50;99.90
18073;DHT22;9161;47.348;9.648;2023-05-29T09:42:10;26.60;99.90
18073;DHT22;9161;47.348;9.648;2023-05-29T09:47:16;26.90;99.90
18073;DHT22;9161;47.348;9.648;2023-05-29T09:52:21;27.30;99.90
18073;DHT22;9161;47.348;9.648;2023-05-29T09:57:25;27.80;99.90
18073;DHT22;9161;47.348;9.648;2023-05-29T10:02:30;28.40;99.90
18073;DHT22;9161;47.348;9.648;2023-05-29T10:07:36;28.30;99.90
18073;DHT22;9161;47.348;9.648;2023-05-29T10:12:39;28.40;99.90
18073;DHT22;9161;47.348;9.648;2023-05-29T10:17:49;28.40;99.90
18073;DHT22;9161;47.348;9.648;2023-05-29T10:22:55;28.90;99.90
18073;DHT22;9161;47.348;9.648;2023-05-29T10:27:59;29.70;99.90
18073;DHT22;9161;47.348;9.648;2023-05-29T10:38:45;29.80;99.90
18073;DHT22;9161;47.348;9.648;2023-05-29T10:43:47;29.60;99.90
18073;DHT22;9161;47.348;9.648;2023-05-29T10:48:50;30.00;99.90
18073;DHT22;9161;47.348;9.648;2023-05-29T10:53:54;29.80;99.90
18073;DHT22;9161;47.348;9.648;2023-05-29T10:58:59;29.20;99.90
18073;DHT22;9161;47.348;9.648;2023-05-29T11:04:27;28.50;99.90
18073;DHT22;9161;47.348;9.648;2023-05-29T11:09:35;28.60;99.30
18073;DHT22;9161;47.348;9.648;2023-05-29T11:14:48;29.70;99.90
18073;DHT22;9161;47.348;9.648;2023-05-29T11:19:56;30.50;99.90
18073;DHT22;9161;47.348;9.648;2023-05-29T11:25:00;31.00;99.40
18073;DHT22;9161;47.348;9.648;2023-05-29T11:30:06;31.40;98.80
18073;DHT22;9161;47.348;9.648;2023-05-29T11:35:09;31.50;98.80
18073;DHT22;9161;47.348;9.648;2023-05-29T11:40:15;31.80;97.90
18073;DHT22;9161;47.348;9.648;2023-05-29T11:45:18;32.10;96.50
18073;DHT22;9161;47.348;9.648;2023-05-29T11:50:21;31.80;95.00
18073;DHT22;9161;47.348;9.648;2023-05-29T11:55:26;31.90;96.60
18073;DHT22;9161;47.348;9.648;2023-05-29T12:00:31;31.80;93.60
18073;DHT22;9161;47.348;9.648;2023-05-29T12:05:44;32.60;95.60
18073;DHT22;9161;47.348;9.648;2023-05-29T12:10:49;32.00;93.50
18073;DHT22;9161;47.348;9.648;2023-05-29T12:15:54;32.30;92.30
18073;DHT22;9161;47.348;9.648;2023-05-29T12:20:58;33.20;93.10
18073;DHT22;9161;47.348;9.648;2023-05-29T12:26:02;33.10;89.00
18073;DHT22;9161;47.348;9.648;2023-05-29T12:31:06;33.20;91.30
18073;DHT22;9161;47.348;9.648;2023-05-29T12:36:09;33.10;83.90
18073;DHT22;9161;47.348;9.648;2023-05-29T12:41:27;32.60;85.70
18073;DHT22;9161;47.348;9.648;2023-05-29T12:46:36;33.10;84.30
18073;DHT22;9161;47.348;9.648;2023-05-29T12:51:41;32.40;82.70
18073;DHT22;9161;47.348;9.648;2023-05-29T12:56:45;33.00;82.10
18073;DHT22;9161;47.348;9.648;2023-05-29T13:01:47;33.60;82.50
18073;DHT22;9161;47.348;9.648;2023-05-29T13:06:50;33.70;84.60
18073;DHT22;9161;47.348;9.648;2023-05-29T13:11:53;32.00;79.80
18073;DHT22;9161;47.348;9.648;2023-05-29T13:16:55;32.10;80.70
18073;DHT22;9161;47.348;9.648;2023-05-29T13:21:58;33.10;75.70
18073;DHT22;9161;47.348;9.648;2023-05-29T13:27:02;34.00;78.00
18073;DHT22;9161;47.348;9.648;2023-05-29T13:32:04;33.00;79.40
18073;DHT22;9161;47.348;9.648;2023-05-29T13:37:07;33.40;76.60
18073;DHT22;9161;47.348;9.648;2023-05-29T13:42:10;33.10;74.20
18073;DHT22;9161;47.348;9.648;2023-05-29T13:47:12;33.30;76.90
18073;DHT22;9161;47.348;9.648;2023-05-29T13:52:15;33.60;76.60
18073;DHT22;9161;47.348;9.648;2023-05-29T13:57:19;33.10;73.30
18073;DHT22;9161;47.348;9.648;2023-05-29T14:02:21;33.00;78.30
18073;DHT22;9161;47.348;9.648;2023-05-29T14:07:23;33.80;76.10
18073;DHT22;9161;47.348;9.648;2023-05-29T14:12:27;33.30;71.80
18073;DHT22;9161;47.348;9.648;2023-05-29T14:17:29;32.60;74.50
18073;DHT22;9161;47.348;9.648;2023-05-29T14:22:31;33.40;71.90
18073;DHT22;9161;47.348;9.648;2023-05-29T14:27:34;33.60;75.60
18073;DHT22;9161;47.348;9.648;2023-05-29T14:32:36;33.30;69.80
18073;DHT22;9161;47.348;9.648;2023-05-29T14:37:39;32.90;70.50
18073;DHT22;9161;47.348;9.648;2023-05-29T14:42:43;33.80;76.40
18073;DHT22;9161;47.348;9.648;2023-05-29T14:47:47;33.90;73.70
18073;DHT22;9161;47.348;9.648;2023-05-29T14:52:49;32.80;70.60
18073;DHT22;9161;47.348;9.648;2023-05-29T14:57:53;32.60;76.00
18073;DHT22;9161;47.348;9.648;2023-05-29T15:02:55;32.30;71.00
18073;DHT22;9161;47.348;9.648;2023-05-29T15:07:59;31.70;73.00
18073;DHT22;9161;47.348;9.648;2023-05-29T15:13:03;31.40;75.40
18073;DHT22;9161;47.348;9.648;2023-05-29T15:18:07;30.80;73.20
18073;DHT22;9161;47.348;9.648;2023-05-29T15:23:09;30.60;77.10
18073;DHT22;9161;47.348;9.648;2023-05-29T15:28:14;29.70;76.10
18073;DHT22;9161;47.348;9.648;2023-05-29T15:33:16;29.40;75.20
18073;DHT22;9161;47.348;9.648;2023-05-29T15:38:18;29.50;76.40
18073;DHT22;9161;47.348;9.648;2023-05-29T15:43:22;29.70;76.70
18073;DHT22;9161;47.348;9.648;2023-05-29T15:48:25;29.60;77.90
18073;DHT22;9161;47.348;9.648;2023-05-29T15:53:27;29.60;76.50
18073;DHT22;9161;47.348;9.648;2023-05-29T15:58:31;29.70;77.00
18073;DHT22;9161;47.348;9.648;2023-05-29T16:03:33;28.90;75.50
18073;DHT22;9161;47.348;9.648;2023-05-29T16:08:35;28.20;77.30
18073;DHT22;9161;47.348;9.648;2023-05-29T16:13:39;28.60;78.50
18073;DHT22;9161;47.348;9.648;2023-05-29T16:18:42;28.40;76.00
18073;DHT22;9161;47.348;9.648;2023-05-29T16:23:44;28.40;78.10
18073;DHT22;9161;47.348;9.648;2023-05-29T16:28:48;28.40;77.80
18073;DHT22;9161;47.348;9.648;2023-05-29T16:33:51;28.20;77.90
18073;DHT22;9161;47.348;9.648;2023-05-29T16:38:53;28.00;75.00
18073;DHT22;9161;47.348;9.648;2023-05-29T16:43:56;27.50;78.20
18073;DHT22;9161;47.348;9.648;2023-05-29T16:48:58;27.20;77.50
18073;DHT22;9161;47.348;9.648;2023-05-29T16:54:01;27.10;77.50
18073;DHT22;9161;47.348;9.648;2023-05-29T16:59:05;26.70;79.00
18073;DHT22;9161;47.348;9.648;2023-05-29T17:04:08;26.70;77.00
18073;DHT22;9161;47.348;9.648;2023-05-29T17:09:11;25.90;78.50
18073;DHT22;9161;47.348;9.648;2023-05-29T17:14:16;25.90;78.10
18073;DHT22;9161;47.348;9.648;2023-05-29T17:19:18;25.50;82.30
18073;DHT22;9161;47.348;9.648;2023-05-29T17:24:21;25.50;81.20
18073;DHT22;9161;47.348;9.648;2023-05-29T17:29:24;25.30;80.00
18073;DHT22;9161;47.348;9.648;2023-05-29T17:34:27;25.10;81.10
18073;DHT22;9161;47.348;9.648;2023-05-29T17:39:30;24.80;82.10
18073;DHT22;9161;47.348;9.648;2023-05-29T17:44:34;24.60;83.00
18073;DHT22;9161;47.348;9.648;2023-05-29T17:49:36;24.40;83.10
18073;DHT22;9161;47.348;9.648;2023-05-29T17:54:39;24.20;82.60
18073;DHT22;9161;47.348;9.648;2023-05-29T17:59:43;24.00;83.70
18073;DHT22;9161;47.348;9.648;2023-05-29T18:04:45;23.70;84.90
18073;DHT22;9161;47.348;9.648;2023-05-29T18:09:51;23.50;86.50
18073;DHT22;9161;47.348;9.648;2023-05-29T18:14:54;23.30;85.70
18073;DHT22;9161;47.348;9.648;2023-05-29T18:19:57;23.10;87.00
18073;DHT22;9161;47.348;9.648;2023-05-29T18:24:59;22.90;86.80
18073;DHT22;9161;47.348;9.648;2023-05-29T18:30:04;22.70;89.30
18073;DHT22;9161;47.348;9.648;2023-05-29T18:35:08;22.60;90.40
18073;DHT22;9161;47.348;9.648;2023-05-29T18:40:11;22.30;90.60
18073;DHT22;9161;47.348;9.648;2023-05-29T18:45:16;22.00;90.10
18073;DHT22;9161;47.348;9.648;2023-05-29T18:50:19;21.80;90.20
18073;DHT22;9161;47.348;9.648;2023-05-29T18:55:21;21.80;90.30
18073;DHT22;9161;47.348;9.648;2023-05-29T19:00:25;21.60;90.80
18073;DHT22;9161;47.348;9.648;2023-05-29T19:05:28;21.40;90.70
18073;DHT22;9161;47.348;9.648;2023-05-29T19:10:30;21.10;91.50
18073;DHT22;9161;47.348;9.648;2023-05-29T19:15:34;20.70;92.00
18073;DHT22;9161;47.348;9.648;2023-05-29T19:20:37;20.50;92.30
18073;DHT22;9161;47.348;9.648;2023-05-29T19:25:41;20.20;93.00
18073;DHT22;9161;47.348;9.648;2023-05-29T19:30:45;20.00;93.30
18073;DHT22;9161;47.348;9.648;2023-05-29T19:36:03;19.90;93.10
18073;DHT22;9161;47.348;9.648;2023-05-29T19:41:22;19.60;94.70
18073;DHT22;9161;47.348;9.648;2023-05-29T19:46:38;19.30;95.20
18073;DHT22;9161;47.348;9.648;2023-05-29T19:51:41;19.20;95.70
18073;DHT22;9161;47.348;9.648;2023-05-29T19:56:44;19.00;95.80
18073;DHT22;9161;47.348;9.648;2023-05-29T20:01:48;18.90;96.50
18073;DHT22;9161;47.348;9.648;2023-05-29T20:06:51;18.80;96.40
18073;DHT22;9161;47.348;9.648;2023-05-29T20:11:53;18.80;96.20
18073;DHT22;9161;47.348;9.648;2023-05-29T20:16:57;18.50;97.60
18073;DHT22;9161;47.348;9.648;2023-05-29T20:21:59;18.50;97.90
18073;DHT22;9161;47.348;9.648;2023-05-29T20:27:02;18.20;98.20
18073;DHT22;9161;47.348;9.648;2023-05-29T20:32:06;17.90;99.20
18073;DHT22;9161;47.348;9.648;2023-05-29T20:37:08;17.90;99.50
18073;DHT22;9161;47.348;9.648;2023-05-29T20:42:12;17.80;99.30
18073;DHT22;9161;47.348;9.648;2023-05-29T20:47:17;17.80;97.80
18073;DHT22;9161;47.348;9.648;2023-05-29T20:52:20;17.80;98.50
18073;DHT22;9161;47.348;9.648;2023-05-29T20:57:23;17.60;99.90
18073;DHT22;9161;47.348;9.648;2023-05-29T21:02:26;17.70;99.90
18073;DHT22;9161;47.348;9.648;2023-05-29T21:07:29;17.30;99.90
18073;DHT22;9161;47.348;9.648;2023-05-29T21:12:36;17.50;99.90
18073;DHT22;9161;47.348;9.648;2023-05-29T21:17:40;17.00;99.90
18073;DHT22;9161;47.348;9.648;2023-05-29T21:22:43;16.90;99.90
18073;DHT22;9161;47.348;9.648;2023-05-29T21:27:46;17.20;99.80
18073;DHT22;9161;47.348;9.648;2023-05-29T21:32:49;17.40;99.90
18073;DHT22;9161;47.348;9.648;2023-05-29T21:37:52;17.00;99.90
18073;DHT22;9161;47.348;9.648;2023-05-29T21:42:55;16.80;99.90
18073;DHT22;9161;47.348;9.648;2023-05-29T21:47:59;16.50;99.90
18073;DHT22;9161;47.348;9.648;2023-05-29T21:53:02;16.20;99.90
18073;DHT22;9161;47.348;9.648;2023-05-29T21:58:04;16.70;99.90
18073;DHT22;9161;47.348;9.648;2023-05-29T22:03:08;16.50;99.90
18073;DHT22;9161;47.348;9.648;2023-05-29T22:08:10;16.20;99.90
18073;DHT22;9161;47.348;9.648;2023-05-29T22:13:13;16.00;99.90
18073;DHT22;9161;47.348;9.648;2023-05-29T22:18:16;16.30;99.90
18073;DHT22;9161;47.348;9.648;2023-05-29T22:23:19;16.00;99.90
18073;DHT22;9161;47.348;9.648;2023-05-29T22:28:22;15.60;99.90
18073;DHT22;9161;47.348;9.648;2023-05-29T22:33:27;15.50;99.90
18073;DHT22;9161;47.348;9.648;2023-05-29T22:38:30;15.30;99.90
18073;DHT22;9161;47.348;9.648;2023-05-29T22:43:33;15.30;99.90
18073;DHT22;9161;47.348;9.648;2023-05-29T22:48:36;15.10;99.90
18073;DHT22;9161;47.348;9.648;2023-05-29T22:53:39;15.00;99.90
18073;DHT22;9161;47.348;9.648;2023-05-29T22:58:41;15.00;99.90
18073;DHT22;9161;47.348;9.648;2023-05-29T23:03:45;14.90;99.90
18073;DHT22;9161;47.348;9.648;2023-05-29T23:08:47;14.80;99.90
18073;DHT22;9161;47.348;9.648;2023-05-29T23:13:50;15.00;99.90
18073;DHT22;9161;47.348;9.648;2023-05-29T23:18:53;14.80;99.90
18073;DHT22;9161;47.348;9.648;2023-05-29T23:23:58;14.70;99.90
18073;DHT22;9161;47.348;9.648;2023-05-29T23:29:01;14.40;99.90
18073;DHT22;9161;47.348;9.648;2023-05-29T23:34:04;14.30;99.90
18073;DHT22;9161;47.348;9.648;2023-05-29T23:39:07;14.50;99.90
18073;DHT22;9161;47.348;9.648;2023-05-29T23:44:10;14.50;99.90
18073;DHT22;9161;47.348;9.648;2023-05-29T23:49:13;14.30;99.90
18073;DHT22;9161;47.348;9.648;2023-05-29T23:54:16;14.10;99.90
18073;DHT22;9161;47.348;9.648;2023-05-29T23:59:18;13.90;99.90
